Time,TemperatureF,DewpointF,PressureIn,WindDirection,WindDirectionDegrees,WindSpeedMPH,WindSpeedGustMPH,Humidity,HourlyPrecipIn,Conditions,Clouds,dailyrainin,SoftwareType,DateUTC
2013-01-27 00:03:00,9.0,-2.0,-100.00,NNW,345,9.0,13.0,60,0.00,,,-99.99,,2013-01-27 05:03:00,
2013-01-27 00:12:00,8.0,-2.0,-100.00,NNW,330,7.0,17.0,61,0.00,,,-99.99,,2013-01-27 05:12:00,
2013-01-27 00:22:00,9.0,-2.0,-100.00,NNW,335,11.0,20.0,61,0.00,,,-99.99,,2013-01-27 05:22:00,
2013-01-27 00:32:00,9.0,-2.0,-100.00,NNW,340,5.0,14.0,61,0.00,,,-99.99,,2013-01-27 05:32:00,
2013-01-27 00:41:00,9.0,-2.0,-100.00,North,350,7.0,14.0,61,0.00,,,-99.99,,2013-01-27 05:41:00,
2013-01-27 00:52:00,8.0,-1.0,-100.00,NNW,335,5.0,12.0,62,0.00,,,-99.99,,2013-01-27 05:52:00,
2013-01-27 01:01:00,8.0,-1.0,-100.00,NNW,345,5.0,12.0,63,0.00,,,-99.99,,2013-01-27 06:01:00,
2013-01-27 01:11:00,8.0,-1.0,-100.00,North,-999,-999.0,-999.0,64,0.00,,,-99.99,,2013-01-27 06:11:00,
2013-01-27 01:21:00,8.0,-1.0,-100.00,NNW,335,3.0,12.0,63,0.00,,,-99.99,,2013-01-27 06:21:00,
2013-01-27 01:32:00,9.0,-1.0,-100.00,NNW,340,4.0,14.0,63,0.00,,,-99.99,,2013-01-27 06:32:00,
2013-01-27 01:42:00,8.0,-1.0,-100.00,NNW,330,5.0,11.0,64,0.00,,,-99.99,,2013-01-27 06:42:00,
2013-01-27 01:52:00,9.0,-1.0,-100.00,NW,315,7.0,12.0,64,0.00,,,-99.99,,2013-01-27 06:52:00,
2013-01-27 02:01:00,9.0,-1.0,-100.00,NW,325,6.0,15.0,64,0.00,,,-99.99,,2013-01-27 07:01:00,
2013-01-27 02:14:00,9.0,-1.0,-100.00,NNW,345,5.0,21.0,64,0.00,,,-99.99,,2013-01-27 07:14:00,
2013-01-27 02:21:00,9.0,-1.0,-100.00,NNW,340,5.0,12.0,64,0.00,,,-99.99,,2013-01-27 07:21:00,
2013-01-27 02:31:00,9.0,-1.0,-100.00,NNW,345,4.0,14.0,64,0.00,,,-99.99,,2013-01-27 07:31:00,
2013-01-27 02:41:00,9.0,-1.0,-100.00,NNW,335,4.0,11.0,64,0.00,,,-99.99,,2013-01-27 07:41:00,
2013-01-27 02:51:00,8.0,-1.0,-100.00,NNW,340,7.0,14.0,64,0.00,,,-99.99,,2013-01-27 07:51:00,
2013-01-27 03:01:00,8.0,-1.0,-100.00,NNW,340,7.0,14.0,64,0.00,,,-99.99,,2013-01-27 08:01:00,
2013-01-27 03:11:00,9.0,-1.0,-100.00,NW,310,5.0,20.0,63,0.00,,,-99.99,,2013-01-27 08:11:00,
2013-01-27 03:22:00,8.0,-1.0,-100.00,NNW,345,6.0,16.0,64,0.00,,,-99.99,,2013-01-27 08:22:00,
2013-01-27 03:32:00,8.0,-1.0,-100.00,North,-999,-999.0,-999.0,64,-99.99,,,-99.99,,2013-01-27 08:32:00,
2013-01-27 03:42:00,8.0,-1.0,-100.00,NNW,340,9.0,16.0,64,0.00,,,-99.99,,2013-01-27 08:42:00,
2013-01-27 03:52:00,8.0,-1.0,-100.00,North,0,6.0,17.0,64,0.00,,,-99.99,,2013-01-27 08:52:00,
2013-01-27 04:02:00,8.0,-1.0,-100.00,NNW,340,7.0,16.0,64,0.00,,,-99.99,,2013-01-27 09:02:00,
2013-01-27 04:11:00,8.0,-1.0,-100.00,NNW,345,7.0,12.0,64,0.00,,,-99.99,,2013-01-27 09:11:00,
2013-01-27 04:21:00,8.0,-1.0,-100.00,NW,305,6.0,14.0,64,0.00,,,-99.99,,2013-01-27 09:21:00,
2013-01-27 04:32:00,8.0,-2.0,-100.00,NNW,345,7.0,16.0,64,0.00,,,-99.99,,2013-01-27 09:32:00,
2013-01-27 04:41:00,8.0,-1.0,-100.00,NNW,340,7.0,14.0,65,0.00,,,-99.99,,2013-01-27 09:41:00,
2013-01-27 04:51:00,7.0,-2.0,-100.00,NNW,330,6.0,16.0,66,0.00,,,-99.99,,2013-01-27 09:51:00,
2013-01-27 05:01:00,8.0,-1.0,-100.00,NW,325,11.0,17.0,65,0.00,,,-99.99,,2013-01-27 10:01:00,
2013-01-27 05:11:00,7.0,-2.0,-100.00,NNW,335,10.0,23.0,64,0.00,,,-99.99,,2013-01-27 10:11:00,
2013-01-27 05:21:00,7.0,-2.0,-100.00,NNW,340,12.0,19.0,65,0.00,,,-99.99,,2013-01-27 10:21:00,
2013-01-27 05:32:00,7.0,-2.0,-100.00,NNW,330,12.0,20.0,65,0.00,,,-99.99,,2013-01-27 10:32:00,
2013-01-27 05:42:00,7.0,-2.0,-100.00,NNW,335,12.0,19.0,65,0.00,,,-99.99,,2013-01-27 10:42:00,
2013-01-27 05:51:00,7.0,-2.0,-100.00,NNW,335,11.0,19.0,65,0.00,,,-99.99,,2013-01-27 10:51:00,
2013-01-27 06:01:00,7.0,-2.0,-100.00,NNW,345,10.0,19.0,64,0.00,,,-99.99,,2013-01-27 11:01:00,
2013-01-27 06:11:00,7.0,-3.0,-100.00,NNW,335,13.0,18.0,63,0.00,,,-99.99,,2013-01-27 11:11:00,
2013-01-27 06:21:00,7.0,-3.0,-100.00,NNW,340,9.0,16.0,64,0.00,,,-99.99,,2013-01-27 11:21:00,
2013-01-27 06:32:00,7.0,-3.0,-100.00,NNW,340,10.0,16.0,63,0.00,,,-99.99,,2013-01-27 11:32:00,
2013-01-27 06:42:00,6.0,-3.0,-100.00,NNW,345,8.0,12.0,63,0.00,,,-99.99,,2013-01-27 11:42:00,
2013-01-27 06:52:00,6.0,-3.0,-100.00,NNW,340,9.0,14.0,62,0.00,,,-99.99,,2013-01-27 11:52:00,
2013-01-27 07:02:00,7.0,-4.0,-100.00,NNW,345,10.0,17.0,61,0.00,,,-99.99,,2013-01-27 12:02:00,
2013-01-27 07:12:00,7.0,-4.0,-100.00,NW,325,7.0,22.0,60,0.00,,,-99.99,,2013-01-27 12:12:00,
2013-01-27 07:21:00,7.0,-4.0,-100.00,NNW,340,12.0,17.0,60,0.00,,,-99.99,,2013-01-27 12:21:00,
2013-01-27 07:32:00,6.0,-4.0,-100.00,NNW,340,8.0,17.0,60,0.00,,,-99.99,,2013-01-27 12:32:00,
2013-01-27 07:42:00,7.0,-5.0,-100.00,NNW,330,11.0,17.0,59,0.00,,,-99.99,,2013-01-27 12:42:00,
2013-01-27 07:52:00,6.0,-4.0,-100.00,NNW,335,9.0,16.0,62,0.00,,,-99.99,,2013-01-27 12:52:00,
2013-01-27 08:02:00,7.0,-4.0,-100.00,NNW,340,14.0,23.0,60,0.00,,,-99.99,,2013-01-27 13:02:00,
2013-01-27 08:11:00,7.0,-4.0,-100.00,NNW,330,9.0,19.0,60,0.00,,,-99.99,,2013-01-27 13:11:00,
2013-01-27 08:22:00,7.0,-4.0,-100.00,NNW,340,8.0,12.0,60,0.00,,,-99.99,,2013-01-27 13:22:00,
2013-01-27 08:32:00,7.0,-5.0,-100.00,NNW,335,7.0,14.0,58,0.00,,,-99.99,,2013-01-27 13:32:00,
2013-01-27 08:42:00,8.0,-5.0,-100.00,NNW,340,10.0,14.0,56,0.00,,,-99.99,,2013-01-27 13:42:00,
2013-01-27 08:52:00,8.0,-5.0,-100.00,NNW,340,9.0,17.0,55,0.00,,,-99.99,,2013-01-27 13:52:00,
2013-01-27 09:02:00,9.0,-5.0,-100.00,NNW,335,9.0,14.0,54,0.00,,,-99.99,,2013-01-27 14:02:00,
2013-01-27 09:12:00,9.0,-5.0,-100.00,NNW,340,11.0,14.0,53,0.00,,,-99.99,,2013-01-27 14:12:00,
2013-01-27 09:22:00,9.0,-4.0,-100.00,NNW,340,11.0,17.0,53,0.00,,,-99.99,,2013-01-27 14:22:00,
2013-01-27 09:33:00,9.0,-4.0,-100.00,NNW,330,9.0,17.0,53,0.00,,,-99.99,,2013-01-27 14:33:00,
2013-01-27 09:42:00,10.0,-5.0,-100.00,NNW,340,11.0,23.0,50,0.00,,,-99.99,,2013-01-27 14:42:00,
2013-01-27 09:52:00,11.0,-7.0,-100.00,NNW,340,20.0,27.0,42,0.00,,,-99.99,,2013-01-27 14:52:00,
2013-01-27 10:02:00,11.0,-7.0,-100.00,NNW,345,18.0,29.0,42,0.00,,,-99.99,,2013-01-27 15:02:00,
2013-01-27 10:12:00,11.0,-7.0,-100.00,NNW,345,16.0,30.0,42,0.00,,,-99.99,,2013-01-27 15:12:00,
2013-01-27 10:22:00,12.0,-7.0,-100.00,NNW,345,16.0,26.0,42,0.00,,,-99.99,,2013-01-27 15:22:00,
2013-01-27 10:32:00,12.0,-7.0,-100.00,North,-999,-999.0,-999.0,41,0.00,,,-99.99,,2013-01-27 15:32:00,
2013-01-27 10:42:00,12.0,-7.0,-100.00,NNW,340,13.0,27.0,41,0.00,,,-99.99,,2013-01-27 15:42:00,
2013-01-27 11:02:00,13.0,-7.0,-100.00,NNW,340,12.0,30.0,39,0.00,,,-99.99,,2013-01-27 16:02:00,
2013-01-27 11:12:00,14.0,-8.0,-100.00,NNW,335,15.0,26.0,37,0.00,,,-99.99,,2013-01-27 16:12:00,
2013-01-27 11:32:00,15.0,-7.0,-100.00,NNW,335,13.0,21.0,36,0.00,,,-99.99,,2013-01-27 16:32:00,
2013-01-27 11:42:00,15.0,-7.0,-100.00,NNW,335,13.0,19.0,36,0.00,,,-99.99,,2013-01-27 16:42:00,
2013-01-27 11:52:00,16.0,-6.0,-100.00,NNW,340,12.0,19.0,36,0.00,,,-99.99,,2013-01-27 16:52:00,
2013-01-27 12:02:00,16.0,-6.0,-100.00,NNW,330,8.0,17.0,37,0.00,,,-99.99,,2013-01-27 17:02:00,
2013-01-27 12:12:00,17.0,-5.0,-100.00,NNW,335,9.0,18.0,36,0.00,,,-99.99,,2013-01-27 17:12:00,
2013-01-27 12:22:00,17.0,-6.0,-100.00,NNW,340,11.0,18.0,34,0.00,,,-99.99,,2013-01-27 17:22:00,
2013-01-27 12:42:00,18.0,-6.0,-100.00,NNW,345,9.0,19.0,34,0.00,,,-99.99,,2013-01-27 17:42:00,
2013-01-27 12:52:00,18.0,-5.0,-100.00,NNW,335,6.0,16.0,34,0.00,,,-99.99,,2013-01-27 17:52:00,
2013-01-27 13:02:00,18.0,-5.0,-100.00,NNW,335,9.0,14.0,34,0.00,,,-99.99,,2013-01-27 18:02:00,
2013-01-27 13:12:00,18.0,-5.0,-100.00,NNW,335,8.0,19.0,34,0.00,,,-99.99,,2013-01-27 18:12:00,
2013-01-27 13:22:00,18.0,-5.0,-100.00,NW,325,8.0,14.0,35,0.00,,,-99.99,,2013-01-27 18:22:00,
2013-01-27 13:32:00,18.0,-5.0,-100.00,NNW,340,9.0,16.0,34,0.00,,,-99.99,,2013-01-27 18:32:00,
2013-01-27 13:42:00,18.0,-5.0,-100.00,NNW,345,10.0,16.0,34,0.00,,,-99.99,,2013-01-27 18:42:00,
2013-01-27 13:52:00,18.0,-5.0,-100.00,NNW,335,12.0,16.0,34,0.00,,,-99.99,,2013-01-27 18:52:00,
2013-01-27 14:02:00,19.0,-5.0,-100.00,NNW,340,9.0,16.0,33,0.00,,,-99.99,,2013-01-27 19:02:00,
2013-01-27 14:12:00,19.0,-5.0,-100.00,NNW,340,10.0,16.0,33,0.00,,,-99.99,,2013-01-27 19:12:00,
2013-01-27 14:22:00,19.0,-5.0,-100.00,NNW,335,10.0,16.0,33,0.00,,,-99.99,,2013-01-27 19:22:00,
2013-01-27 14:32:00,20.0,-5.0,-100.00,NNW,340,9.0,16.0,33,0.00,,,-99.99,,2013-01-27 19:32:00,
2013-01-27 14:42:00,19.0,-5.0,-100.00,NNW,340,9.0,19.0,33,0.00,,,-99.99,,2013-01-27 19:42:00,
2013-01-27 15:02:00,19.0,-5.0,-100.00,NNW,345,9.0,17.0,32,0.00,,,-99.99,,2013-01-27 20:02:00,
2013-01-27 15:12:00,20.0,-5.0,-100.00,NW,325,10.0,14.0,32,0.00,,,-99.99,,2013-01-27 20:12:00,
2013-01-27 15:22:00,20.0,-6.0,-100.00,NW,325,6.0,18.0,31,0.00,,,-99.99,,2013-01-27 20:22:00,
2013-01-27 15:33:00,19.0,-6.0,-100.00,NNW,340,9.0,16.0,31,0.00,,,-99.99,,2013-01-27 20:33:00,
2013-01-27 15:42:00,19.0,-6.0,-100.00,NNW,345,8.0,16.0,32,0.00,,,-99.99,,2013-01-27 20:42:00,
2013-01-27 15:52:00,20.0,-6.0,-100.00,NNW,340,9.0,14.0,30,0.00,,,-99.99,,2013-01-27 20:52:00,
2013-01-27 16:02:00,19.0,-8.0,-100.00,NNW,340,11.0,18.0,29,0.00,,,-99.99,,2013-01-27 21:02:00,
2013-01-27 16:12:00,19.0,-10.0,-100.00,NNW,345,10.0,16.0,26,0.00,,,-99.99,,2013-01-27 21:12:00,
2013-01-27 16:22:00,19.0,-10.0,-100.00,NNW,340,11.0,15.0,25,0.00,,,-99.99,,2013-01-27 21:22:00,
2013-01-27 16:33:00,19.0,-12.0,-100.00,NNW,345,11.0,19.0,24,0.00,,,-99.99,,2013-01-27 21:33:00,
2013-01-27 16:42:00,18.0,-12.0,-100.00,NNW,340,9.0,15.0,24,0.00,,,-99.99,,2013-01-27 21:42:00,
2013-01-27 16:52:00,18.0,-10.0,-100.00,NNW,345,6.0,16.0,27,0.00,,,-99.99,,2013-01-27 21:52:00,
2013-01-27 17:02:00,18.0,-11.0,-100.00,NW,325,6.0,14.0,26,0.00,,,-99.99,,2013-01-27 22:02:00,
2013-01-27 17:22:00,17.0,-12.0,-100.00,NNW,330,7.0,18.0,26,0.00,,,-99.99,,2013-01-27 22:22:00,
2013-01-27 17:32:00,17.0,-12.0,-100.00,North,-999,-999.0,-999.0,26,-99.99,,,-99.99,,2013-01-27 22:32:00,
2013-01-27 17:42:00,16.0,-11.0,-100.00,NNW,345,7.0,14.0,28,0.00,,,-99.99,,2013-01-27 22:42:00,
2013-01-27 17:52:00,16.0,-12.0,-100.00,NNW,345,9.0,16.0,27,0.00,,,-99.99,,2013-01-27 22:52:00,
2013-01-27 18:02:00,16.0,-13.0,-100.00,NNW,340,9.0,15.0,25,0.00,,,-99.99,,2013-01-27 23:02:00,
2013-01-27 18:12:00,16.0,-14.0,-100.00,NNW,340,13.0,18.0,25,0.00,,,-99.99,,2013-01-27 23:12:00,
2013-01-27 18:22:00,16.0,-15.0,-100.00,NNW,340,11.0,18.0,23,0.00,,,-99.99,,2013-01-27 23:22:00,
2013-01-27 18:32:00,15.0,-15.0,-100.00,NNW,340,10.0,15.0,24,0.00,,,-99.99,,2013-01-27 23:32:00,
2013-01-27 18:42:00,15.0,-15.0,-100.00,NNW,340,12.0,19.0,24,0.00,,,-99.99,,2013-01-27 23:42:00,
2013-01-27 18:52:00,16.0,-15.0,-100.00,NNW,340,14.0,19.0,23,0.00,,,-99.99,,2013-01-27 23:52:00,
2013-01-27 19:02:00,15.0,-14.0,-100.00,NNW,335,7.0,12.0,26,0.00,,,-99.99,,2013-01-28 00:02:00,
2013-01-27 19:11:00,15.0,-14.0,-100.00,NNW,340,9.0,16.0,25,0.00,,,-99.99,,2013-01-28 00:11:00,
2013-01-27 19:21:00,15.0,-14.0,-100.00,NNW,330,7.0,14.0,25,0.00,,,-99.99,,2013-01-28 00:21:00,
2013-01-27 19:32:00,14.0,-13.0,-100.00,NW,320,6.0,9.0,27,0.00,,,-99.99,,2013-01-28 00:32:00,
2013-01-27 19:42:00,14.0,-12.0,-100.00,NNW,340,5.0,9.0,29,0.00,,,-99.99,,2013-01-28 00:42:00,
2013-01-27 19:51:00,14.0,-11.0,-100.00,NNW,345,6.0,9.0,31,0.00,,,-99.99,,2013-01-28 00:51:00,
2013-01-27 20:02:00,14.0,-12.0,-100.00,NNW,335,4.0,12.0,29,0.00,,,-99.99,,2013-01-28 01:02:00,
2013-01-27 20:11:00,13.0,-12.0,-100.00,NNW,340,5.0,9.0,30,0.00,,,-99.99,,2013-01-28 01:11:00,
2013-01-27 20:22:00,14.0,-12.0,-100.00,NW,325,6.0,9.0,29,0.00,,,-99.99,,2013-01-28 01:22:00,
2013-01-27 20:33:00,14.0,-12.0,-100.00,NNW,340,6.0,10.0,30,0.00,,,-99.99,,2013-01-28 01:33:00,
2013-01-27 20:42:00,13.0,-12.0,-100.00,NW,325,6.0,7.0,31,0.00,,,-99.99,,2013-01-28 01:42:00,
2013-01-27 20:52:00,13.0,-10.0,-100.00,NW,320,4.0,8.0,34,0.00,,,-99.99,,2013-01-28 01:52:00,
2013-01-27 21:02:00,12.0,-8.0,-100.00,NW,320,4.0,7.0,39,0.00,,,-99.99,,2013-01-28 02:02:00,
2013-01-27 21:11:00,11.0,-4.0,-100.00,North,-999,-999.0,-999.0,49,-99.99,,,-99.99,,2013-01-28 02:11:00,
2013-01-27 21:22:00,10.0,-3.0,-100.00,WSW,250,1.0,2.0,52,0.00,,,-99.99,,2013-01-28 02:22:00,
2013-01-27 21:32:00,10.0,-3.0,-100.00,East,100,1.0,2.0,54,0.00,,,-99.99,,2013-01-28 02:32:00,
2013-01-27 21:42:00,9.0,-5.0,-100.00,NW,315,1.0,2.0,50,0.00,,,-99.99,,2013-01-28 02:42:00,
2013-01-27 21:52:00,9.0,-6.0,-100.00,NW,320,2.0,4.0,51,0.00,,,-99.99,,2013-01-28 02:52:00,
2013-01-27 22:02:00,8.0,-5.0,-100.00,NW,315,2.0,6.0,55,0.00,,,-99.99,,2013-01-28 03:02:00,
2013-01-27 22:12:00,9.0,-5.0,-100.00,ESE,115,1.0,4.0,53,0.00,,,-99.99,,2013-01-28 03:12:00,
2013-01-27 22:22:00,9.0,-6.0,-100.00,South,185,1.0,4.0,49,0.00,,,-99.99,,2013-01-28 03:22:00,
2013-01-27 22:32:00,8.0,-6.0,-100.00,NNW,340,2.0,3.0,51,0.00,,,-99.99,,2013-01-28 03:32:00,
2013-01-27 22:42:00,8.0,-6.0,-100.00,NE,35,0.0,2.0,53,0.00,,,-99.99,,2013-01-28 03:42:00,
2013-01-27 22:52:00,7.0,-6.0,-100.00,North,350,1.0,2.0,54,0.00,,,-99.99,,2013-01-28 03:52:00,
2013-01-27 23:02:00,7.0,-6.0,-100.00,NNE,15,1.0,1.0,55,0.00,,,-99.99,,2013-01-28 04:02:00,
2013-01-27 23:11:00,6.0,-6.0,-100.00,North,10,1.0,2.0,55,0.00,,,-99.99,,2013-01-28 04:11:00,
2013-01-27 23:22:00,6.0,-6.0,-100.00,NNW,345,2.0,4.0,56,0.00,,,-99.99,,2013-01-28 04:22:00,
2013-01-27 23:32:00,7.0,-6.0,-100.00,North,5,2.0,5.0,55,0.00,,,-99.99,,2013-01-28 04:32:00,
2013-01-27 23:42:00,7.0,-5.0,-100.00,NNW,345,3.0,4.0,56,0.00,,,-99.99,,2013-01-28 04:42:00,
2013-01-27 23:52:00,7.0,-4.0,-100.00,NW,310,1.0,2.0,58,0.00,,,-99.99,,2013-01-28 04:52:00,